sensor_id;sensor_type;location;lat;lon;timestamp;P1;durP1;ratioP1;P2;durP2;ratioP2
73550;SDS011;61816;53.582;10.096;2023-04-03T00:00:49;18.73;;;4.93;;
73550;SDS011;61816;53.582;10.096;2023-04-03T00:03:15;20.33;;;4.10;;
73550;SDS011;61816;53.582;10.096;2023-04-03T00:05:41;23.03;;;4.47;;
73550;SDS011;61816;53.582;10.096;2023-04-03T00:08:07;17.47;;;5.20;;
73550;SDS011;61816;53.582;10.096;2023-04-03T00:10:34;17.77;;;5.07;;
73550;SDS011;61816;53.582;10.096;2023-04-03T00:13:01;11.13;;;3.90;;
73550;SDS011;61816;53.582;10.096;2023-04-03T00:15:27;17.97;;;4.40;;
73550;SDS011;61816;53.582;10.096;2023-04-03T00:17:52;16.00;;;4.30;;
73550;SDS011;61816;53.582;10.096;2023-04-03T00:20:18;14.53;;;4.20;;
73550;SDS011;61816;53.582;10.096;2023-04-03T00:22:43;15.37;;;4.30;;
73550;SDS011;61816;53.582;10.096;2023-04-03T00:25:08;18.07;;;4.60;;
73550;SDS011;61816;53.582;10.096;2023-04-03T00:27:36;11.67;;;4.53;;
73550;SDS011;61816;53.582;10.096;2023-04-03T00:30:02;20.13;;;3.83;;
73550;SDS011;61816;53.582;10.096;2023-04-03T00:32:28;19.63;;;4.00;;
73550;SDS011;61816;53.582;10.096;2023-04-03T00:34:53;21.13;;;4.27;;
73550;SDS011;61816;53.582;10.096;2023-04-03T00:37:18;17.80;;;3.87;;
73550;SDS011;61816;53.582;10.096;2023-04-03T00:39:44;15.97;;;3.63;;
73550;SDS011;61816;53.582;10.096;2023-04-03T00:42:10;15.73;;;3.33;;
73550;SDS011;61816;53.582;10.096;2023-04-03T00:47:01;15.67;;;3.30;;
73550;SDS011;61816;53.582;10.096;2023-04-03T00:49:30;21.47;;;4.23;;
73550;SDS011;61816;53.582;10.096;2023-04-03T00:51:55;18.17;;;5.50;;
73550;SDS011;61816;53.582;10.096;2023-04-03T00:54:23;16.83;;;4.27;;
73550;SDS011;61816;53.582;10.096;2023-04-03T00:56:50;15.77;;;4.00;;
73550;SDS011;61816;53.582;10.096;2023-04-03T00:59:18;18.27;;;3.50;;
73550;SDS011;61816;53.582;10.096;2023-04-03T01:01:52;18.53;;;4.57;;
73550;SDS011;61816;53.582;10.096;2023-04-03T01:04:27;16.77;;;4.17;;
73550;SDS011;61816;53.582;10.096;2023-04-03T01:06:53;16.43;;;4.13;;
73550;SDS011;61816;53.582;10.096;2023-04-03T01:09:21;22.33;;;4.83;;
73550;SDS011;61816;53.582;10.096;2023-04-03T01:11:47;14.77;;;4.30;;
73550;SDS011;61816;53.582;10.096;2023-04-03T01:14:12;18.50;;;4.40;;
73550;SDS011;61816;53.582;10.096;2023-04-03T01:16:37;18.50;;;4.50;;
73550;SDS011;61816;53.582;10.096;2023-04-03T01:19:03;15.93;;;4.67;;
73550;SDS011;61816;53.582;10.096;2023-04-03T01:24:11;21.83;;;4.47;;
73550;SDS011;61816;53.582;10.096;2023-04-03T01:26:57;31.43;;;5.03;;
73550;SDS011;61816;53.582;10.096;2023-04-03T01:29:22;19.17;;;4.10;;
73550;SDS011;61816;53.582;10.096;2023-04-03T01:31:55;16.03;;;4.10;;
73550;SDS011;61816;53.582;10.096;2023-04-03T01:34:22;16.30;;;3.40;;
73550;SDS011;61816;53.582;10.096;2023-04-03T01:36:49;15.20;;;4.60;;
73550;SDS011;61816;53.582;10.096;2023-04-03T01:39:16;18.07;;;5.87;;
73550;SDS011;61816;53.582;10.096;2023-04-03T01:41:41;20.27;;;4.60;;
73550;SDS011;61816;53.582;10.096;2023-04-03T01:44:07;19.00;;;4.67;;
73550;SDS011;61816;53.582;10.096;2023-04-03T01:46:32;19.43;;;4.47;;
73550;SDS011;61816;53.582;10.096;2023-04-03T01:48:58;20.77;;;4.97;;
73550;SDS011;61816;53.582;10.096;2023-04-03T01:51:23;19.70;;;4.37;;
73550;SDS011;61816;53.582;10.096;2023-04-03T01:53:48;16.83;;;4.03;;
73550;SDS011;61816;53.582;10.096;2023-04-03T01:56:14;20.70;;;4.87;;
73550;SDS011;61816;53.582;10.096;2023-04-03T01:58:39;13.90;;;4.30;;
73550;SDS011;61816;53.582;10.096;2023-04-03T02:01:04;14.03;;;4.20;;
73550;SDS011;61816;53.582;10.096;2023-04-03T02:03:30;20.33;;;4.30;;
73550;SDS011;61816;53.582;10.096;2023-04-03T02:05:56;17.07;;;4.30;;
73550;SDS011;61816;53.582;10.096;2023-04-03T02:08:21;17.83;;;4.23;;
73550;SDS011;61816;53.582;10.096;2023-04-03T02:10:47;17.17;;;4.37;;
73550;SDS011;61816;53.582;10.096;2023-04-03T02:13:13;20.80;;;4.37;;
73550;SDS011;61816;53.582;10.096;2023-04-03T02:15:39;16.40;;;3.73;;
73550;SDS011;61816;53.582;10.096;2023-04-03T02:18:05;16.50;;;4.07;;
73550;SDS011;61816;53.582;10.096;2023-04-03T02:20:31;18.20;;;4.67;;
73550;SDS011;61816;53.582;10.096;2023-04-03T02:22:57;23.47;;;4.37;;
73550;SDS011;61816;53.582;10.096;2023-04-03T02:25:23;15.70;;;4.60;;
73550;SDS011;61816;53.582;10.096;2023-04-03T02:27:49;24.27;;;4.20;;
73550;SDS011;61816;53.582;10.096;2023-04-03T02:30:14;24.23;;;4.80;;
73550;SDS011;61816;53.582;10.096;2023-04-03T02:32:40;20.93;;;5.17;;
73550;SDS011;61816;53.582;10.096;2023-04-03T02:35:07;14.83;;;4.60;;
73550;SDS011;61816;53.582;10.096;2023-04-03T02:37:33;17.53;;;5.40;;
73550;SDS011;61816;53.582;10.096;2023-04-03T02:39:58;20.47;;;5.33;;
73550;SDS011;61816;53.582;10.096;2023-04-03T02:42:24;20.23;;;5.77;;
73550;SDS011;61816;53.582;10.096;2023-04-03T02:44:49;23.47;;;5.30;;
73550;SDS011;61816;53.582;10.096;2023-04-03T02:47:14;19.77;;;5.50;;
73550;SDS011;61816;53.582;10.096;2023-04-03T02:49:40;14.10;;;5.67;;
73550;SDS011;61816;53.582;10.096;2023-04-03T02:52:06;22.53;;;5.70;;
73550;SDS011;61816;53.582;10.096;2023-04-03T02:54:31;26.50;;;7.67;;
73550;SDS011;61816;53.582;10.096;2023-04-03T02:56:57;24.47;;;5.53;;
73550;SDS011;61816;53.582;10.096;2023-04-03T02:59:22;21.53;;;5.73;;
73550;SDS011;61816;53.582;10.096;2023-04-03T03:01:48;19.10;;;5.27;;
73550;SDS011;61816;53.582;10.096;2023-04-03T03:04:13;20.87;;;5.87;;
73550;SDS011;61816;53.582;10.096;2023-04-03T03:06:38;20.53;;;5.20;;
73550;SDS011;61816;53.582;10.096;2023-04-03T03:09:05;21.60;;;5.43;;
73550;SDS011;61816;53.582;10.096;2023-04-03T03:11:31;20.00;;;5.63;;
73550;SDS011;61816;53.582;10.096;2023-04-03T03:13:56;10.47;;;4.27;;
73550;SDS011;61816;53.582;10.096;2023-04-03T03:16:21;14.10;;;4.50;;
73550;SDS011;61816;53.582;10.096;2023-04-03T03:18:47;15.07;;;5.17;;
73550;SDS011;61816;53.582;10.096;2023-04-03T03:21:12;18.33;;;5.10;;
73550;SDS011;61816;53.582;10.096;2023-04-03T03:23:38;17.50;;;5.53;;
73550;SDS011;61816;53.582;10.096;2023-04-03T03:26:04;19.87;;;5.20;;
73550;SDS011;61816;53.582;10.096;2023-04-03T03:28:32;16.53;;;4.97;;
73550;SDS011;61816;53.582;10.096;2023-04-03T03:30:58;16.17;;;5.13;;
73550;SDS011;61816;53.582;10.096;2023-04-03T03:33:24;17.43;;;5.87;;
73550;SDS011;61816;53.582;10.096;2023-04-03T03:35:50;18.03;;;4.87;;
73550;SDS011;61816;53.582;10.096;2023-04-03T03:38:16;24.10;;;6.63;;
73550;SDS011;61816;53.582;10.096;2023-04-03T03:40:42;20.23;;;5.93;;
73550;SDS011;61816;53.582;10.096;2023-04-03T03:43:07;17.23;;;4.70;;
73550;SDS011;61816;53.582;10.096;2023-04-03T03:45:32;21.87;;;5.27;;
73550;SDS011;61816;53.582;10.096;2023-04-03T03:47:58;19.10;;;5.50;;
73550;SDS011;61816;53.582;10.096;2023-04-03T03:50:23;18.47;;;5.10;;
73550;SDS011;61816;53.582;10.096;2023-04-03T03:52:48;14.80;;;4.33;;
73550;SDS011;61816;53.582;10.096;2023-04-03T03:55:14;18.33;;;5.07;;
73550;SDS011;61816;53.582;10.096;2023-04-03T03:57:39;15.33;;;4.77;;
73550;SDS011;61816;53.582;10.096;2023-04-03T04:00:05;15.43;;;4.63;;
73550;SDS011;61816;53.582;10.096;2023-04-03T04:02:32;12.67;;;4.53;;
73550;SDS011;61816;53.582;10.096;2023-04-03T04:04:58;23.60;;;4.70;;
73550;SDS011;61816;53.582;10.096;2023-04-03T04:07:23;22.57;;;4.80;;
73550;SDS011;61816;53.582;10.096;2023-04-03T04:09:48;20.17;;;5.20;;
73550;SDS011;61816;53.582;10.096;2023-04-03T04:12:14;19.37;;;5.30;;
73550;SDS011;61816;53.582;10.096;2023-04-03T04:14:39;19.30;;;4.33;;
73550;SDS011;61816;53.582;10.096;2023-04-03T04:17:05;20.50;;;5.30;;
73550;SDS011;61816;53.582;10.096;2023-04-03T04:19:30;20.30;;;5.30;;
73550;SDS011;61816;53.582;10.096;2023-04-03T04:21:56;17.50;;;5.23;;
73550;SDS011;61816;53.582;10.096;2023-04-03T04:24:21;22.13;;;5.17;;
73550;SDS011;61816;53.582;10.096;2023-04-03T04:26:47;16.83;;;4.50;;
73550;SDS011;61816;53.582;10.096;2023-04-03T04:29:13;18.30;;;6.47;;
73550;SDS011;61816;53.582;10.096;2023-04-03T04:31:38;14.80;;;4.53;;
73550;SDS011;61816;53.582;10.096;2023-04-03T04:34:04;16.57;;;4.73;;
73550;SDS011;61816;53.582;10.096;2023-04-03T04:36:29;20.23;;;4.70;;
73550;SDS011;61816;53.582;10.096;2023-04-03T04:38:55;23.93;;;4.90;;
73550;SDS011;61816;53.582;10.096;2023-04-03T04:41:21;15.13;;;4.57;;
73550;SDS011;61816;53.582;10.096;2023-04-03T04:43:50;15.70;;;4.60;;
73550;SDS011;61816;53.582;10.096;2023-04-03T04:46:16;14.70;;;4.87;;
73550;SDS011;61816;53.582;10.096;2023-04-03T04:48:42;19.90;;;5.23;;
73550;SDS011;61816;53.582;10.096;2023-04-03T04:51:08;23.53;;;5.07;;
73550;SDS011;61816;53.582;10.096;2023-04-03T04:53:35;25.53;;;4.87;;
73550;SDS011;61816;53.582;10.096;2023-04-03T04:56:00;20.60;;;5.37;;
73550;SDS011;61816;53.582;10.096;2023-04-03T04:58:26;13.20;;;3.87;;
73550;SDS011;61816;53.582;10.096;2023-04-03T05:00:58;22.00;;;4.60;;
73550;SDS011;61816;53.582;10.096;2023-04-03T05:03:27;13.90;;;4.70;;
73550;SDS011;61816;53.582;10.096;2023-04-03T05:05:53;18.13;;;5.27;;
73550;SDS011;61816;53.582;10.096;2023-04-03T05:08:18;10.87;;;4.23;;
73550;SDS011;61816;53.582;10.096;2023-04-03T05:10:44;21.63;;;4.40;;
73550;SDS011;61816;53.582;10.096;2023-04-03T05:13:11;18.50;;;5.10;;
73550;SDS011;61816;53.582;10.096;2023-04-03T05:15:36;17.50;;;4.17;;
73550;SDS011;61816;53.582;10.096;2023-04-03T05:18:02;27.57;;;5.87;;
73550;SDS011;61816;53.582;10.096;2023-04-03T05:20:27;13.00;;;4.27;;
73550;SDS011;61816;53.582;10.096;2023-04-03T05:22:53;17.57;;;4.27;;
73550;SDS011;61816;53.582;10.096;2023-04-03T05:25:18;23.67;;;4.50;;
73550;SDS011;61816;53.582;10.096;2023-04-03T05:27:43;16.60;;;4.40;;
73550;SDS011;61816;53.582;10.096;2023-04-03T05:30:09;19.33;;;4.37;;
73550;SDS011;61816;53.582;10.096;2023-04-03T05:32:35;17.90;;;4.87;;
73550;SDS011;61816;53.582;10.096;2023-04-03T05:35:00;20.83;;;5.53;;
73550;SDS011;61816;53.582;10.096;2023-04-03T05:37:26;22.53;;;5.23;;
73550;SDS011;61816;53.582;10.096;2023-04-03T05:39:52;22.50;;;4.60;;
73550;SDS011;61816;53.582;10.096;2023-04-03T05:42:17;15.23;;;4.20;;
73550;SDS011;61816;53.582;10.096;2023-04-03T05:44:42;17.73;;;4.57;;
73550;SDS011;61816;53.582;10.096;2023-04-03T05:47:09;22.10;;;5.30;;
73550;SDS011;61816;53.582;10.096;2023-04-03T05:49:34;14.30;;;4.53;;
73550;SDS011;61816;53.582;10.096;2023-04-03T05:52:00;22.63;;;4.90;;
73550;SDS011;61816;53.582;10.096;2023-04-03T05:54:27;21.70;;;3.87;;
73550;SDS011;61816;53.582;10.096;2023-04-03T05:56:54;19.73;;;5.00;;
73550;SDS011;61816;53.582;10.096;2023-04-03T05:59:20;24.73;;;4.53;;
73550;SDS011;61816;53.582;10.096;2023-04-03T06:01:46;22.00;;;4.93;;
73550;SDS011;61816;53.582;10.096;2023-04-03T06:04:12;13.40;;;3.87;;
73550;SDS011;61816;53.582;10.096;2023-04-03T06:09:19;22.17;;;4.87;;
73550;SDS011;61816;53.582;10.096;2023-04-03T06:11:46;15.73;;;4.17;;
73550;SDS011;61816;53.582;10.096;2023-04-03T06:14:11;21.33;;;5.20;;
73550;SDS011;61816;53.582;10.096;2023-04-03T06:16:37;19.83;;;4.87;;
73550;SDS011;61816;53.582;10.096;2023-04-03T06:19:04;16.20;;;4.43;;
73550;SDS011;61816;53.582;10.096;2023-04-03T06:21:30;14.00;;;4.00;;
73550;SDS011;61816;53.582;10.096;2023-04-03T06:23:56;15.30;;;4.03;;
73550;SDS011;61816;53.582;10.096;2023-04-03T06:26:22;17.13;;;3.73;;
73550;SDS011;61816;53.582;10.096;2023-04-03T06:28:47;19.87;;;4.47;;
73550;SDS011;61816;53.582;10.096;2023-04-03T06:31:12;13.13;;;3.83;;
73550;SDS011;61816;53.582;10.096;2023-04-03T06:33:38;10.17;;;3.53;;
73550;SDS011;61816;53.582;10.096;2023-04-03T06:36:04;12.60;;;3.57;;
73550;SDS011;61816;53.582;10.096;2023-04-03T06:38:30;14.48;;;4.00;;
73550;SDS011;61816;53.582;10.096;2023-04-03T06:40:56;15.37;;;4.53;;
73550;SDS011;61816;53.582;10.096;2023-04-03T06:43:21;12.17;;;3.53;;
73550;SDS011;61816;53.582;10.096;2023-04-03T06:45:47;22.93;;;4.30;;
73550;SDS011;61816;53.582;10.096;2023-04-03T06:48:12;13.90;;;4.23;;
73550;SDS011;61816;53.582;10.096;2023-04-03T06:50:38;18.45;;;3.92;;
73550;SDS011;61816;53.582;10.096;2023-04-03T06:53:04;17.73;;;3.75;;
73550;SDS011;61816;53.582;10.096;2023-04-03T06:55:29;15.53;;;3.47;;
73550;SDS011;61816;53.582;10.096;2023-04-03T06:57:55;8.35;;;2.55;;
73550;SDS011;61816;53.582;10.096;2023-04-03T07:00:20;12.48;;;2.95;;
73550;SDS011;61816;53.582;10.096;2023-04-03T07:02:46;15.32;;;2.65;;
73550;SDS011;61816;53.582;10.096;2023-04-03T07:05:12;13.07;;;3.10;;
73550;SDS011;61816;53.582;10.096;2023-04-03T07:07:38;18.83;;;4.03;;
73550;SDS011;61816;53.582;10.096;2023-04-03T07:10:04;11.40;;;2.28;;
73550;SDS011;61816;53.582;10.096;2023-04-03T07:12:32;14.75;;;2.78;;
73550;SDS011;61816;53.582;10.096;2023-04-03T07:14:58;11.57;;;2.25;;
73550;SDS011;61816;53.582;10.096;2023-04-03T07:17:24;11.02;;;2.78;;
73550;SDS011;61816;53.582;10.096;2023-04-03T07:19:50;8.27;;;2.53;;
73550;SDS011;61816;53.582;10.096;2023-04-03T07:22:16;13.40;;;2.05;;
73550;SDS011;61816;53.582;10.096;2023-04-03T07:24:41;14.35;;;2.55;;
73550;SDS011;61816;53.582;10.096;2023-04-03T07:27:07;13.57;;;2.80;;
73550;SDS011;61816;53.582;10.096;2023-04-03T07:29:33;9.90;;;2.38;;
73550;SDS011;61816;53.582;10.096;2023-04-03T07:32:00;9.90;;;2.33;;
73550;SDS011;61816;53.582;10.096;2023-04-03T07:34:26;12.70;;;2.92;;
73550;SDS011;61816;53.582;10.096;2023-04-03T07:36:51;12.38;;;2.55;;
73550;SDS011;61816;53.582;10.096;2023-04-03T07:39:17;9.02;;;2.78;;
73550;SDS011;61816;53.582;10.096;2023-04-03T07:41:42;7.28;;;2.13;;
73550;SDS011;61816;53.582;10.096;2023-04-03T07:44:08;12.65;;;2.38;;
73550;SDS011;61816;53.582;10.096;2023-04-03T07:46:35;18.20;;;2.80;;
73550;SDS011;61816;53.582;10.096;2023-04-03T07:49:01;11.40;;;2.30;;
73550;SDS011;61816;53.582;10.096;2023-04-03T07:51:26;16.10;;;3.60;;
73550;SDS011;61816;53.582;10.096;2023-04-03T07:53:53;8.63;;;1.92;;
73550;SDS011;61816;53.582;10.096;2023-04-03T07:56:18;8.48;;;1.70;;
73550;SDS011;61816;53.582;10.096;2023-04-03T07:58:45;4.97;;;1.55;;
73550;SDS011;61816;53.582;10.096;2023-04-03T08:01:11;7.88;;;1.70;;
73550;SDS011;61816;53.582;10.096;2023-04-03T08:03:36;10.13;;;1.75;;
73550;SDS011;61816;53.582;10.096;2023-04-03T08:06:04;7.40;;;2.03;;
73550;SDS011;61816;53.582;10.096;2023-04-03T08:08:32;8.88;;;1.52;;
73550;SDS011;61816;53.582;10.096;2023-04-03T08:10:58;7.63;;;1.90;;
73550;SDS011;61816;53.582;10.096;2023-04-03T08:13:25;8.52;;;1.73;;
73550;SDS011;61816;53.582;10.096;2023-04-03T08:15:51;9.93;;;1.90;;
73550;SDS011;61816;53.582;10.096;2023-04-03T08:18:17;5.50;;;1.58;;
73550;SDS011;61816;53.582;10.096;2023-04-03T08:20:46;7.53;;;1.80;;
73550;SDS011;61816;53.582;10.096;2023-04-03T08:23:11;10.27;;;2.05;;
73550;SDS011;61816;53.582;10.096;2023-04-03T08:25:40;7.22;;;2.00;;
73550;SDS011;61816;53.582;10.096;2023-04-03T08:28:06;12.27;;;2.55;;
73550;SDS011;61816;53.582;10.096;2023-04-03T08:30:32;9.20;;;2.20;;
73550;SDS011;61816;53.582;10.096;2023-04-03T08:33:00;15.93;;;2.05;;
73550;SDS011;61816;53.582;10.096;2023-04-03T08:35:26;5.70;;;1.80;;
73550;SDS011;61816;53.582;10.096;2023-04-03T08:37:52;10.93;;;1.88;;
73550;SDS011;61816;53.582;10.096;2023-04-03T08:40:17;9.50;;;2.05;;
73550;SDS011;61816;53.582;10.096;2023-04-03T08:45:15;8.40;;;2.35;;
73550;SDS011;61816;53.582;10.096;2023-04-03T08:50:53;6.57;;;1.88;;
73550;SDS011;61816;53.582;10.096;2023-04-03T08:53:21;6.82;;;2.00;;
73550;SDS011;61816;53.582;10.096;2023-04-03T08:55:51;5.90;;;1.33;;
73550;SDS011;61816;53.582;10.096;2023-04-03T08:58:19;4.18;;;1.50;;
73550;SDS011;61816;53.582;10.096;2023-04-03T09:01:03;4.45;;;1.40;;
73550;SDS011;61816;53.582;10.096;2023-04-03T09:03:31;11.23;;;1.80;;
73550;SDS011;61816;53.582;10.096;2023-04-03T09:06:14;5.65;;;1.90;;
73550;SDS011;61816;53.582;10.096;2023-04-03T09:09:00;8.15;;;2.17;;
73550;SDS011;61816;53.582;10.096;2023-04-03T09:11:36;4.03;;;1.63;;
73550;SDS011;61816;53.582;10.096;2023-04-03T09:16:56;6.28;;;1.63;;
73550;SDS011;61816;53.582;10.096;2023-04-03T09:24:39;6.13;;;1.60;;
73550;SDS011;61816;53.582;10.096;2023-04-03T09:27:06;6.30;;;1.80;;
73550;SDS011;61816;53.582;10.096;2023-04-03T09:29:36;7.63;;;1.75;;
73550;SDS011;61816;53.582;10.096;2023-04-03T09:32:28;2.30;;;1.00;;
73550;SDS011;61816;53.582;10.096;2023-04-03T09:35:03;3.42;;;1.58;;
73550;SDS011;61816;53.582;10.096;2023-04-03T09:37:40;8.93;;;1.20;;
73550;SDS011;61816;53.582;10.096;2023-04-03T09:42:54;10.23;;;1.65;;
73550;SDS011;61816;53.582;10.096;2023-04-03T09:45:32;6.60;;;2.47;;
73550;SDS011;61816;53.582;10.096;2023-04-03T09:48:08;8.35;;;2.40;;
73550;SDS011;61816;53.582;10.096;2023-04-03T09:50:52;8.25;;;0.98;;
73550;SDS011;61816;53.582;10.096;2023-04-03T09:55:57;7.68;;;1.30;;
73550;SDS011;61816;53.582;10.096;2023-04-03T09:58:26;6.97;;;1.65;;
73550;SDS011;61816;53.582;10.096;2023-04-03T10:01:01;4.15;;;2.08;;
73550;SDS011;61816;53.582;10.096;2023-04-03T10:03:32;8.15;;;1.35;;
73550;SDS011;61816;53.582;10.096;2023-04-03T10:06:04;9.70;;;1.13;;
73550;SDS011;61816;53.582;10.096;2023-04-03T10:08:58;8.73;;;1.45;;
73550;SDS011;61816;53.582;10.096;2023-04-03T10:11:26;4.97;;;1.17;;
73550;SDS011;61816;53.582;10.096;2023-04-03T10:16:24;8.13;;;1.42;;
73550;SDS011;61816;53.582;10.096;2023-04-03T10:19:13;4.57;;;1.20;;
73550;SDS011;61816;53.582;10.096;2023-04-03T10:22:04;3.38;;;1.30;;
73550;SDS011;61816;53.582;10.096;2023-04-03T10:24:47;3.40;;;1.08;;
73550;SDS011;61816;53.582;10.096;2023-04-03T10:27:35;8.32;;;1.60;;
73550;SDS011;61816;53.582;10.096;2023-04-03T10:30:21;9.40;;;1.40;;
73550;SDS011;61816;53.582;10.096;2023-04-03T10:35:58;8.15;;;1.98;;
73550;SDS011;61816;53.582;10.096;2023-04-03T10:41:13;3.75;;;1.48;;
73550;SDS011;61816;53.582;10.096;2023-04-03T10:46:22;3.88;;;1.40;;
73550;SDS011;61816;53.582;10.096;2023-04-03T10:49:20;4.95;;;1.40;;
73550;SDS011;61816;53.582;10.096;2023-04-03T10:51:58;5.13;;;1.42;;
73550;SDS011;61816;53.582;10.096;2023-04-03T10:54:38;3.47;;;1.40;;
73550;SDS011;61816;53.582;10.096;2023-04-03T10:57:10;4.40;;;1.10;;
73550;SDS011;61816;53.582;10.096;2023-04-03T11:02:19;5.03;;;1.58;;
73550;SDS011;61816;53.582;10.096;2023-04-03T11:04:52;7.28;;;1.70;;
73550;SDS011;61816;53.582;10.096;2023-04-03T11:07:45;4.47;;;1.20;;
73550;SDS011;61816;53.582;10.096;2023-04-03T11:10:26;3.78;;;1.50;;
73550;SDS011;61816;53.582;10.096;2023-04-03T11:13:08;9.25;;;1.35;;
73550;SDS011;61816;53.582;10.096;2023-04-03T11:15:38;8.95;;;1.85;;
73550;SDS011;61816;53.582;10.096;2023-04-03T11:18:06;8.05;;;1.88;;
73550;SDS011;61816;53.582;10.096;2023-04-03T11:20:37;5.13;;;1.70;;
73550;SDS011;61816;53.582;10.096;2023-04-03T11:25:57;6.03;;;1.58;;
73550;SDS011;61816;53.582;10.096;2023-04-03T11:28:32;5.18;;;1.67;;
73550;SDS011;61816;53.582;10.096;2023-04-03T11:33:51;5.60;;;1.60;;
73550;SDS011;61816;53.582;10.096;2023-04-03T11:36:29;3.67;;;1.58;;
73550;SDS011;61816;53.582;10.096;2023-04-03T11:38:59;10.18;;;1.65;;
73550;SDS011;61816;53.582;10.096;2023-04-03T11:41:32;5.07;;;1.63;;
73550;SDS011;61816;53.582;10.096;2023-04-03T11:44:04;7.22;;;1.90;;
73550;SDS011;61816;53.582;10.096;2023-04-03T11:46:52;8.77;;;1.77;;
73550;SDS011;61816;53.582;10.096;2023-04-03T12:26:50;17.20;;;1.65;;
73550;SDS011;61816;53.582;10.096;2023-04-03T12:32:06;5.25;;;1.25;;
73550;SDS011;61816;53.582;10.096;2023-04-03T12:34:55;3.70;;;1.17;;
73550;SDS011;61816;53.582;10.096;2023-04-03T12:40:11;7.97;;;1.55;;
73550;SDS011;61816;53.582;10.096;2023-04-03T12:42:56;9.98;;;1.92;;
73550;SDS011;61816;53.582;10.096;2023-04-03T12:45:26;5.35;;;1.50;;
73550;SDS011;61816;53.582;10.096;2023-04-03T12:47:53;8.18;;;1.70;;
73550;SDS011;61816;53.582;10.096;2023-04-03T12:50:30;5.22;;;1.20;;
73550;SDS011;61816;53.582;10.096;2023-04-03T12:53:04;6.72;;;1.38;;
73550;SDS011;61816;53.582;10.096;2023-04-03T12:55:31;4.85;;;1.70;;
73550;SDS011;61816;53.582;10.096;2023-04-03T12:57:57;5.03;;;1.42;;
73550;SDS011;61816;53.582;10.096;2023-04-03T13:00:38;6.05;;;1.40;;
73550;SDS011;61816;53.582;10.096;2023-04-03T13:03:05;6.82;;;1.35;;
73550;SDS011;61816;53.582;10.096;2023-04-03T13:05:44;5.78;;;1.05;;
73550;SDS011;61816;53.582;10.096;2023-04-03T13:08:12;3.53;;;1.10;;
73550;SDS011;61816;53.582;10.096;2023-04-03T13:11:01;4.20;;;1.85;;
73550;SDS011;61816;53.582;10.096;2023-04-03T13:13:29;7.38;;;1.58;;
73550;SDS011;61816;53.582;10.096;2023-04-03T13:15:55;9.65;;;1.70;;
73550;SDS011;61816;53.582;10.096;2023-04-03T13:18:25;3.78;;;1.65;;
73550;SDS011;61816;53.582;10.096;2023-04-03T13:20:59;5.45;;;1.77;;
73550;SDS011;61816;53.582;10.096;2023-04-03T13:23:30;8.23;;;1.95;;
73550;SDS011;61816;53.582;10.096;2023-04-03T13:25:57;4.88;;;1.25;;
73550;SDS011;61816;53.582;10.096;2023-04-03T13:28:28;6.30;;;1.73;;
73550;SDS011;61816;53.582;10.096;2023-04-03T13:33:35;5.18;;;1.30;;
73550;SDS011;61816;53.582;10.096;2023-04-03T13:36:18;3.28;;;2.10;;
73550;SDS011;61816;53.582;10.096;2023-04-03T13:38:46;8.15;;;1.40;;
73550;SDS011;61816;53.582;10.096;2023-04-03T13:41:34;1.85;;;1.00;;
73550;SDS011;61816;53.582;10.096;2023-04-03T13:44:24;4.45;;;1.48;;
73550;SDS011;61816;53.582;10.096;2023-04-03T13:46:53;5.30;;;2.47;;
73550;SDS011;61816;53.582;10.096;2023-04-03T13:49:37;6.05;;;1.45;;
73550;SDS011;61816;53.582;10.096;2023-04-03T13:54:54;5.40;;;1.48;;
73550;SDS011;61816;53.582;10.096;2023-04-03T13:57:22;3.22;;;1.38;;
73550;SDS011;61816;53.582;10.096;2023-04-03T13:59:48;6.40;;;1.45;;
73550;SDS011;61816;53.582;10.096;2023-04-03T14:02:20;4.03;;;1.50;;
73550;SDS011;61816;53.582;10.096;2023-04-03T14:04:50;4.80;;;1.55;;
73550;SDS011;61816;53.582;10.096;2023-04-03T14:07:21;5.25;;;1.35;;
73550;SDS011;61816;53.582;10.096;2023-04-03T14:09:48;10.48;;;1.80;;
73550;SDS011;61816;53.582;10.096;2023-04-03T14:12:15;6.20;;;1.20;;
73550;SDS011;61816;53.582;10.096;2023-04-03T14:14:46;8.43;;;1.70;;
73550;SDS011;61816;53.582;10.096;2023-04-03T14:17:18;7.10;;;1.20;;
73550;SDS011;61816;53.582;10.096;2023-04-03T14:19:46;7.90;;;1.40;;
73550;SDS011;61816;53.582;10.096;2023-04-03T14:22:16;5.97;;;1.63;;
73550;SDS011;61816;53.582;10.096;2023-04-03T14:24:44;7.97;;;1.58;;
73550;SDS011;61816;53.582;10.096;2023-04-03T14:27:33;6.72;;;1.65;;
73550;SDS011;61816;53.582;10.096;2023-04-03T14:30:01;6.80;;;1.48;;
73550;SDS011;61816;53.582;10.096;2023-04-03T14:32:28;5.18;;;1.10;;
73550;SDS011;61816;53.582;10.096;2023-04-03T14:34:55;4.80;;;1.20;;
73550;SDS011;61816;53.582;10.096;2023-04-03T14:37:23;7.20;;;1.90;;
73550;SDS011;61816;53.582;10.096;2023-04-03T14:39:50;8.70;;;1.50;;
73550;SDS011;61816;53.582;10.096;2023-04-03T14:42:19;5.05;;;1.65;;
73550;SDS011;61816;53.582;10.096;2023-04-03T14:44:46;8.93;;;1.50;;
73550;SDS011;61816;53.582;10.096;2023-04-03T14:47:13;4.22;;;1.40;;
73550;SDS011;61816;53.582;10.096;2023-04-03T14:49:41;6.53;;;1.60;;
73550;SDS011;61816;53.582;10.096;2023-04-03T14:52:15;6.63;;;1.90;;
73550;SDS011;61816;53.582;10.096;2023-04-03T14:54:47;5.32;;;1.40;;
73550;SDS011;61816;53.582;10.096;2023-04-03T14:57:14;6.78;;;2.05;;
73550;SDS011;61816;53.582;10.096;2023-04-03T14:59:41;5.57;;;1.45;;
73550;SDS011;61816;53.582;10.096;2023-04-03T15:04:51;9.30;;;2.22;;
73550;SDS011;61816;53.582;10.096;2023-04-03T15:07:17;3.38;;;1.27;;
73550;SDS011;61816;53.582;10.096;2023-04-03T15:09:43;3.45;;;1.38;;
73550;SDS011;61816;53.582;10.096;2023-04-03T15:12:09;5.32;;;1.92;;
73550;SDS011;61816;53.582;10.096;2023-04-03T15:14:38;7.45;;;1.95;;
73550;SDS011;61816;53.582;10.096;2023-04-03T15:17:26;3.63;;;1.38;;
73550;SDS011;61816;53.582;10.096;2023-04-03T15:19:52;6.88;;;1.80;;
73550;SDS011;61816;53.582;10.096;2023-04-03T15:22:19;6.50;;;2.15;;
73550;SDS011;61816;53.582;10.096;2023-04-03T15:24:45;6.30;;;2.20;;
73550;SDS011;61816;53.582;10.096;2023-04-03T15:27:11;6.82;;;1.90;;
73550;SDS011;61816;53.582;10.096;2023-04-03T15:29:38;5.70;;;1.70;;
73550;SDS011;61816;53.582;10.096;2023-04-03T15:32:05;9.02;;;1.70;;
73550;SDS011;61816;53.582;10.096;2023-04-03T15:34:31;4.13;;;1.65;;
73550;SDS011;61816;53.582;10.096;2023-04-03T15:36:56;5.05;;;2.15;;
73550;SDS011;61816;53.582;10.096;2023-04-03T15:39:23;6.93;;;1.98;;
73550;SDS011;61816;53.582;10.096;2023-04-03T15:41:49;8.88;;;1.85;;
73550;SDS011;61816;53.582;10.096;2023-04-03T15:44:17;4.43;;;1.67;;
73550;SDS011;61816;53.582;10.096;2023-04-03T15:46:42;7.90;;;1.92;;
73550;SDS011;61816;53.582;10.096;2023-04-03T15:49:08;5.05;;;1.85;;
73550;SDS011;61816;53.582;10.096;2023-04-03T15:51:34;6.10;;;2.15;;
73550;SDS011;61816;53.582;10.096;2023-04-03T15:54:00;7.97;;;2.00;;
73550;SDS011;61816;53.582;10.096;2023-04-03T15:56:25;6.70;;;1.50;;
73550;SDS011;61816;53.582;10.096;2023-04-03T15:58:51;6.97;;;1.63;;
73550;SDS011;61816;53.582;10.096;2023-04-03T16:01:16;4.95;;;1.58;;
73550;SDS011;61816;53.582;10.096;2023-04-03T16:03:42;7.32;;;1.77;;
73550;SDS011;61816;53.582;10.096;2023-04-03T16:06:16;6.72;;;1.30;;
73550;SDS011;61816;53.582;10.096;2023-04-03T16:08:44;7.43;;;1.92;;
73550;SDS011;61816;53.582;10.096;2023-04-03T16:11:11;7.10;;;1.65;;
73550;SDS011;61816;53.582;10.096;2023-04-03T16:13:37;11.45;;;1.73;;